PDA5500 UKBB-UKLL
Flight info
| Callsign | PDA5500 |
|---|---|
| Flight time | 0h 50m |
| Altitude | 30000 |
| Route | KAFEL P27 LAPVA/K0761F260 P27 GORKU |
| Aircraft | A320/M-SDE3FGHIJ4RWY/LB1 |
Departure
| Time | 2026-04-27 18:30 |
|---|---|
| Airport | Boryspil International Airport (UKBB) |
Arrival
| Time | 2026-04-27 19:20 |
|---|---|
| Airport | Lviv International Airport (UKLL) |
| Time | Latitude | Longitude | Altitude | Speed | Heading |
|---|---|---|---|---|---|
| 2026-04-27 17:55 | 50.33410 | 30.89674 | 412 ft | 0 kts | 182° |
| 2026-04-27 18:26 | 50.33399 | 30.89674 | 415 ft | 6 kts | 182° |
| 2026-04-27 18:26 | 50.33348 | 30.89684 | 409 ft | 9 kts | 142° |
| 2026-04-27 18:26 | 50.33334 | 30.89830 | 415 ft | 16 kts | 92° |
| 2026-04-27 18:27 | 50.33328 | 30.90021 | 415 ft | 22 kts | 92° |
| 2026-04-27 18:27 | 50.33282 | 30.90119 | 413 ft | 8 kts | 178° |
| 2026-04-27 18:27 | 50.33176 | 30.90112 | 413 ft | 19 kts | 182° |
| 2026-04-27 18:27 | 50.33033 | 30.90100 | 409 ft | 21 kts | 182° |
| 2026-04-27 18:28 | 50.32875 | 30.90090 | 408 ft | 24 kts | 183° |
| 2026-04-27 18:28 | 50.32693 | 30.90076 | 407 ft | 29 kts | 183° |
| 2026-04-27 18:28 | 50.32515 | 30.90070 | 413 ft | 17 kts | 166° |
| 2026-04-27 18:28 | 50.32441 | 30.90188 | 411 ft | 14 kts | 103° |
| 2026-04-27 18:29 | 50.32477 | 30.90341 | 424 ft | 15 kts | 52° |
| 2026-04-27 18:29 | 50.32563 | 30.90391 | 417 ft | 15 kts | 4° |
| 2026-04-27 18:29 | 50.32868 | 30.90413 | 415 ft | 80 kts | 2° |
| 2026-04-27 18:29 | 50.33635 | 30.90469 | 425 ft | 137 kts | 2° |
| 2026-04-27 18:30 | 50.34725 | 30.90543 | 644 ft | 164 kts | 1° |
| 2026-04-27 18:30 | 50.35883 | 30.90632 | 1317 ft | 171 kts | 359° |
| 2026-04-27 18:30 | 50.37083 | 30.90722 | 1980 ft | 175 kts | 357° |
| 2026-04-27 18:30 | 50.38309 | 30.90830 | 2678 ft | 179 kts | 358° |
| 2026-04-27 18:31 | 50.39618 | 30.90917 | 3144 ft | 198 kts | 356° |
| 2026-04-27 18:31 | 50.41039 | 30.90955 | 3792 ft | 210 kts | 356° |
| 2026-04-27 18:31 | 50.42524 | 30.90991 | 4579 ft | 217 kts | 355° |
| 2026-04-27 18:31 | 50.44074 | 30.90808 | 5168 ft | 231 kts | 340° |
| 2026-04-27 18:32 | 50.45482 | 30.89571 | 5940 ft | 235 kts | 315° |
| 2026-04-27 18:32 | 50.46343 | 30.87399 | 6863 ft | 240 kts | 288° |
| 2026-04-27 18:32 | 50.46428 | 30.84767 | 7785 ft | 247 kts | 269° |
| 2026-04-27 18:32 | 50.46267 | 30.82079 | 8754 ft | 248 kts | 269° |
| 2026-04-27 18:33 | 50.46106 | 30.79375 | 9708 ft | 249 kts | 269° |
| 2026-04-27 18:33 | 50.45945 | 30.76633 | 10421 ft | 260 kts | 269° |
| 2026-04-27 18:33 | 50.45776 | 30.73678 | 10696 ft | 284 kts | 269° |
| 2026-04-27 18:33 | 50.45595 | 30.70553 | 11177 ft | 297 kts | 269° |
| 2026-04-27 18:34 | 50.45400 | 30.67294 | 11915 ft | 302 kts | 269° |
| 2026-04-27 18:34 | 50.45201 | 30.63989 | 12709 ft | 306 kts | 269° |
| 2026-04-27 18:34 | 50.44999 | 30.60643 | 13492 ft | 310 kts | 269° |
| 2026-04-27 18:34 | 50.44796 | 30.57261 | 14216 ft | 313 kts | 269° |
| 2026-04-27 18:35 | 50.44588 | 30.53833 | 14897 ft | 316 kts | 270° |
| 2026-04-27 18:35 | 50.44377 | 30.50337 | 15349 ft | 327 kts | 270° |
| 2026-04-27 18:35 | 50.44162 | 30.46760 | 15965 ft | 331 kts | 270° |
| 2026-04-27 18:35 | 50.43943 | 30.43096 | 16248 ft | 346 kts | 270° |
| 2026-04-27 18:36 | 50.43715 | 30.39277 | 16587 ft | 357 kts | 270° |
| 2026-04-27 18:36 | 50.43474 | 30.35317 | 16748 ft | 371 kts | 269° |
| 2026-04-27 18:36 | 50.43223 | 30.31224 | 16832 ft | 384 kts | 269° |
| 2026-04-27 18:36 | 50.42958 | 30.27003 | 16999 ft | 393 kts | 269° |
| 2026-04-27 18:37 | 50.42684 | 30.22711 | 17346 ft | 397 kts | 269° |
| 2026-04-27 18:37 | 50.42405 | 30.18387 | 17744 ft | 399 kts | 269° |
| 2026-04-27 18:37 | 50.42128 | 30.14045 | 18169 ft | 401 kts | 269° |
| 2026-04-27 18:37 | 50.41854 | 30.09733 | 18535 ft | 403 kts | 269° |
| 2026-04-27 18:38 | 50.41573 | 30.05357 | 18852 ft | 404 kts | 269° |
| 2026-04-27 18:38 | 50.41290 | 30.00957 | 19172 ft | 406 kts | 269° |
| 2026-04-27 18:38 | 50.41004 | 29.96555 | 19454 ft | 408 kts | 269° |
| 2026-04-27 18:38 | 50.40714 | 29.92120 | 19728 ft | 410 kts | 269° |
| 2026-04-27 18:39 | 50.40422 | 29.87672 | 20012 ft | 411 kts | 269° |
| 2026-04-27 18:39 | 50.40123 | 29.83201 | 20293 ft | 413 kts | 269° |
| 2026-04-27 18:39 | 50.39821 | 29.78721 | 20554 ft | 414 kts | 269° |
| 2026-04-27 18:39 | 50.39517 | 29.74219 | 20807 ft | 416 kts | 269° |
| 2026-04-27 18:40 | 50.39212 | 29.69705 | 21051 ft | 417 kts | 269° |
| 2026-04-27 18:40 | 50.38908 | 29.65173 | 21289 ft | 418 kts | 269° |
| 2026-04-27 18:40 | 50.38601 | 29.60639 | 21607 ft | 417 kts | 269° |
| 2026-04-27 18:40 | 50.38292 | 29.56121 | 21964 ft | 415 kts | 269° |
| 2026-04-27 18:41 | 50.37981 | 29.51627 | 22323 ft | 415 kts | 269° |
| 2026-04-27 18:41 | 50.37669 | 29.47130 | 22647 ft | 416 kts | 269° |
| 2026-04-27 18:41 | 50.37355 | 29.42622 | 22977 ft | 416 kts | 269° |
| 2026-04-27 18:41 | 50.37043 | 29.38172 | 23295 ft | 417 kts | 269° |
| 2026-04-27 18:42 | 50.36726 | 29.33656 | 23631 ft | 417 kts | 269° |
| 2026-04-27 18:42 | 50.36513 | 29.30606 | 23829 ft | 417 kts | 269° |
| 2026-04-27 18:42 | 50.36089 | 29.24586 | 24068 ft | 421 kts | 269° |
| 2026-04-27 18:42 | 50.35762 | 29.20028 | 24304 ft | 421 kts | 268° |
| 2026-04-27 18:43 | 50.35433 | 29.15472 | 24544 ft | 422 kts | 268° |
| 2026-04-27 18:43 | 50.35100 | 29.10911 | 24784 ft | 422 kts | 268° |
| 2026-04-27 18:43 | 50.34765 | 29.06345 | 25025 ft | 422 kts | 268° |
| 2026-04-27 18:43 | 50.34428 | 29.01786 | 25269 ft | 422 kts | 268° |
| 2026-04-27 18:44 | 50.34091 | 28.97222 | 25514 ft | 422 kts | 268° |
| 2026-04-27 18:44 | 50.33757 | 28.92667 | 25768 ft | 421 kts | 268° |
| 2026-04-27 18:44 | 50.33422 | 28.88103 | 26023 ft | 421 kts | 268° |
| 2026-04-27 18:44 | 50.33083 | 28.83551 | 26275 ft | 421 kts | 268° |
| 2026-04-27 18:45 | 50.32739 | 28.78998 | 26483 ft | 421 kts | 268° |
| 2026-04-27 18:45 | 50.32389 | 28.74441 | 26740 ft | 422 kts | 268° |
| 2026-04-27 18:45 | 50.32040 | 28.69880 | 26999 ft | 422 kts | 268° |
| 2026-04-27 18:45 | 50.31695 | 28.65380 | 27258 ft | 422 kts | 268° |
| 2026-04-27 18:46 | 50.31345 | 28.60817 | 27522 ft | 422 kts | 268° |
| 2026-04-27 18:46 | 50.30993 | 28.56258 | 27792 ft | 422 kts | 267° |
| 2026-04-27 18:46 | 50.30640 | 28.51708 | 28060 ft | 421 kts | 267° |
| 2026-04-27 18:46 | 50.30284 | 28.47158 | 28326 ft | 421 kts | 267° |
| 2026-04-27 18:47 | 50.29927 | 28.42604 | 28604 ft | 421 kts | 267° |
| 2026-04-27 18:47 | 50.29519 | 28.38063 | 28882 ft | 423 kts | 263° |
| 2026-04-27 18:47 | 50.28909 | 28.33567 | 29169 ft | 423 kts | 262° |
| 2026-04-27 18:47 | 50.28259 | 28.29085 | 29451 ft | 423 kts | 262° |
| 2026-04-27 18:48 | 50.27582 | 28.24613 | 29734 ft | 423 kts | 261° |
| 2026-04-27 18:48 | 50.26892 | 28.20141 | 30021 ft | 422 kts | 261° |
| 2026-04-27 18:48 | 50.26204 | 28.15672 | 30147 ft | 425 kts | 261° |
| 2026-04-27 18:48 | 50.25520 | 28.11156 | 30138 ft | 429 kts | 261° |
| 2026-04-27 18:49 | 50.24140 | 28.02007 | 30152 ft | 435 kts | 261° |
| 2026-04-27 18:49 | 50.22734 | 27.92766 | 30152 ft | 439 kts | 261° |
| 2026-04-27 18:50 | 50.21317 | 27.83482 | 30156 ft | 439 kts | 261° |
| 2026-04-27 18:50 | 50.19912 | 27.74285 | 30155 ft | 439 kts | 261° |
| 2026-04-27 18:51 | 50.18489 | 27.65005 | 30154 ft | 439 kts | 261° |
| 2026-04-27 18:51 | 50.17054 | 27.55743 | 30145 ft | 439 kts | 261° |
| 2026-04-27 18:52 | 50.15610 | 27.46479 | 30145 ft | 440 kts | 261° |
| 2026-04-27 18:53 | 50.13417 | 27.32573 | 30153 ft | 441 kts | 260° |
| 2026-04-27 18:53 | 50.11949 | 27.23295 | 30155 ft | 441 kts | 260° |
| 2026-04-27 18:54 | 50.10474 | 27.14063 | 30158 ft | 441 kts | 260° |
| 2026-04-27 18:54 | 50.08985 | 27.04803 | 30159 ft | 441 kts | 260° |
| 2026-04-27 18:55 | 50.07499 | 26.95532 | 30151 ft | 441 kts | 260° |
| 2026-04-27 18:55 | 50.06003 | 26.86266 | 30120 ft | 442 kts | 260° |
| 2026-04-27 18:56 | 50.04494 | 26.76948 | 30133 ft | 445 kts | 260° |
| 2026-04-27 18:56 | 50.02964 | 26.67610 | 30142 ft | 446 kts | 259° |
| 2026-04-27 18:57 | 50.01421 | 26.58250 | 30154 ft | 447 kts | 259° |
| 2026-04-27 18:57 | 50.00138 | 26.50477 | 30155 ft | 447 kts | 259° |
| 2026-04-27 18:57 | 49.99366 | 26.45825 | 29740 ft | 441 kts | 259° |
| 2026-04-27 18:58 | 49.98353 | 26.39731 | 29304 ft | 440 kts | 259° |
| 2026-04-27 18:58 | 49.97842 | 26.36672 | 29111 ft | 440 kts | 259° |
| 2026-04-27 18:58 | 49.96817 | 26.30550 | 28528 ft | 437 kts | 259° |
| 2026-04-27 18:58 | 49.96310 | 26.27534 | 28255 ft | 434 kts | 259° |
| 2026-04-27 18:59 | 49.95546 | 26.22995 | 27904 ft | 434 kts | 259° |
| 2026-04-27 18:59 | 49.94787 | 26.18511 | 27471 ft | 423 kts | 259° |
| 2026-04-27 18:59 | 49.94046 | 26.14156 | 27060 ft | 412 kts | 259° |
| 2026-04-27 18:59 | 49.93324 | 26.09914 | 26642 ft | 401 kts | 259° |
| 2026-04-27 19:00 | 49.92615 | 26.05770 | 26234 ft | 392 kts | 259° |
| 2026-04-27 19:00 | 49.91925 | 26.01731 | 25832 ft | 384 kts | 260° |
| 2026-04-27 19:00 | 49.91248 | 25.97766 | 25435 ft | 376 kts | 260° |
| 2026-04-27 19:00 | 49.90581 | 25.93879 | 25041 ft | 371 kts | 260° |
| 2026-04-27 19:01 | 49.89921 | 25.90029 | 24656 ft | 367 kts | 260° |
| 2026-04-27 19:01 | 49.89267 | 25.86217 | 24276 ft | 365 kts | 260° |
| 2026-04-27 19:01 | 49.88617 | 25.82421 | 23896 ft | 363 kts | 260° |
| 2026-04-27 19:01 | 49.87971 | 25.78650 | 23477 ft | 360 kts | 260° |
| 2026-04-27 19:02 | 49.87326 | 25.74903 | 23029 ft | 358 kts | 260° |
| 2026-04-27 19:02 | 49.86690 | 25.71236 | 22596 ft | 356 kts | 260° |
| 2026-04-27 19:02 | 49.86049 | 25.67537 | 22150 ft | 353 kts | 260° |
| 2026-04-27 19:02 | 49.85411 | 25.63865 | 21715 ft | 352 kts | 259° |
| 2026-04-27 19:03 | 49.84773 | 25.60209 | 21301 ft | 351 kts | 259° |
| 2026-04-27 19:03 | 49.84137 | 25.56580 | 20882 ft | 348 kts | 259° |
| 2026-04-27 19:03 | 49.83500 | 25.52966 | 20480 ft | 346 kts | 259° |
| 2026-04-27 19:03 | 49.83082 | 25.50588 | 20207 ft | 344 kts | 259° |
| 2026-04-27 19:04 | 49.82245 | 25.45821 | 19677 ft | 341 kts | 259° |
| 2026-04-27 19:04 | 49.81622 | 25.42283 | 19288 ft | 339 kts | 259° |
| 2026-04-27 19:04 | 49.81002 | 25.38776 | 18896 ft | 337 kts | 259° |
| 2026-04-27 19:04 | 49.80385 | 25.35289 | 18521 ft | 335 kts | 259° |
| 2026-04-27 19:05 | 49.79769 | 25.31817 | 18089 ft | 332 kts | 259° |
| 2026-04-27 19:05 | 49.79161 | 25.28387 | 17655 ft | 330 kts | 259° |
| 2026-04-27 19:05 | 49.78561 | 25.25002 | 17229 ft | 328 kts | 259° |
| 2026-04-27 19:05 | 49.77958 | 25.21610 | 16805 ft | 326 kts | 259° |
| 2026-04-27 19:06 | 49.77358 | 25.18244 | 16384 ft | 324 kts | 259° |
| 2026-04-27 19:06 | 49.76755 | 25.14888 | 15972 ft | 322 kts | 259° |
| 2026-04-27 19:06 | 49.76158 | 25.11564 | 15568 ft | 320 kts | 259° |
| 2026-04-27 19:06 | 49.75562 | 25.08247 | 15165 ft | 318 kts | 259° |
| 2026-04-27 19:07 | 49.74972 | 25.04969 | 14747 ft | 315 kts | 259° |
| 2026-04-27 19:07 | 49.74388 | 25.01718 | 14354 ft | 313 kts | 259° |
| 2026-04-27 19:07 | 49.73807 | 24.98489 | 13963 ft | 310 kts | 259° |
| 2026-04-27 19:07 | 49.73226 | 24.95291 | 13532 ft | 308 kts | 259° |
| 2026-04-27 19:08 | 49.72652 | 24.92122 | 13096 ft | 305 kts | 259° |
| 2026-04-27 19:08 | 49.72082 | 24.88973 | 12668 ft | 303 kts | 259° |
| 2026-04-27 19:08 | 49.71515 | 24.85850 | 12254 ft | 300 kts | 258° |
| 2026-04-27 19:08 | 49.70953 | 24.82764 | 11838 ft | 297 kts | 258° |
| 2026-04-27 19:09 | 49.70395 | 24.79704 | 11430 ft | 295 kts | 258° |
| 2026-04-27 19:09 | 49.69842 | 24.76675 | 11018 ft | 292 kts | 258° |
| 2026-04-27 19:09 | 49.69289 | 24.73669 | 10630 ft | 290 kts | 258° |
| 2026-04-27 19:09 | 49.68744 | 24.70711 | 10232 ft | 279 kts | 258° |
| 2026-04-27 19:10 | 49.68229 | 24.67932 | 9820 ft | 267 kts | 258° |
| 2026-04-27 19:10 | 49.67721 | 24.65176 | 9393 ft | 267 kts | 258° |
| 2026-04-27 19:10 | 49.67216 | 24.62422 | 8959 ft | 266 kts | 258° |
| 2026-04-27 19:10 | 49.66875 | 24.60567 | 8670 ft | 265 kts | 258° |
| 2026-04-27 19:11 | 49.66214 | 24.56980 | 8102 ft | 259 kts | 258° |
| 2026-04-27 19:11 | 49.65726 | 24.54330 | 7697 ft | 254 kts | 258° |
| 2026-04-27 19:11 | 49.65247 | 24.51743 | 7291 ft | 247 kts | 258° |
| 2026-04-27 19:11 | 49.64782 | 24.49234 | 7043 ft | 240 kts | 257° |
| 2026-04-27 19:12 | 49.64329 | 24.46788 | 6786 ft | 234 kts | 258° |
| 2026-04-27 19:12 | 49.63885 | 24.44400 | 6533 ft | 229 kts | 258° |
| 2026-04-27 19:12 | 49.63449 | 24.42060 | 6267 ft | 226 kts | 258° |
| 2026-04-27 19:12 | 49.63015 | 24.39732 | 6098 ft | 226 kts | 258° |
| 2026-04-27 19:13 | 49.62582 | 24.37403 | 5916 ft | 226 kts | 258° |
| 2026-04-27 19:13 | 49.62148 | 24.35080 | 5707 ft | 225 kts | 258° |
| 2026-04-27 19:13 | 49.61713 | 24.32763 | 5495 ft | 224 kts | 258° |
| 2026-04-27 19:13 | 49.61293 | 24.30446 | 5290 ft | 222 kts | 262° |
| 2026-04-27 19:14 | 49.61200 | 24.28137 | 5081 ft | 211 kts | 278° |
| 2026-04-27 19:14 | 49.61510 | 24.26020 | 4874 ft | 198 kts | 293° |
| 2026-04-27 19:14 | 49.62178 | 24.24211 | 4667 ft | 193 kts | 309° |
| 2026-04-27 19:14 | 49.63073 | 24.22672 | 4455 ft | 192 kts | 314° |
| 2026-04-27 19:15 | 49.64017 | 24.21220 | 4244 ft | 191 kts | 316° |
| 2026-04-27 19:15 | 49.64975 | 24.19784 | 4037 ft | 191 kts | 316° |
| 2026-04-27 19:15 | 49.65927 | 24.18363 | 3835 ft | 190 kts | 316° |
| 2026-04-27 19:15 | 49.66874 | 24.16952 | 3628 ft | 186 kts | 316° |
| 2026-04-27 19:16 | 49.67772 | 24.15612 | 3422 ft | 174 kts | 316° |
| 2026-04-27 19:16 | 49.68343 | 24.14760 | 3329 ft | 171 kts | 316° |
| 2026-04-27 19:16 | 49.69474 | 24.13072 | 3091 ft | 168 kts | 316° |
| 2026-04-27 19:16 | 49.70311 | 24.11822 | 3023 ft | 168 kts | 316° |
| 2026-04-27 19:17 | 49.71150 | 24.10568 | 3020 ft | 168 kts | 316° |
| 2026-04-27 19:17 | 49.71992 | 24.09310 | 3021 ft | 168 kts | 316° |
| 2026-04-27 19:17 | 49.72799 | 24.08102 | 2998 ft | 155 kts | 316° |
| 2026-04-27 19:17 | 49.73532 | 24.07005 | 2873 ft | 139 kts | 316° |
| 2026-04-27 19:18 | 49.74208 | 24.05992 | 2755 ft | 133 kts | 317° |
| 2026-04-27 19:18 | 49.74870 | 24.05002 | 2575 ft | 131 kts | 317° |
| 2026-04-27 19:18 | 49.75523 | 24.04022 | 2406 ft | 130 kts | 316° |
| 2026-04-27 19:18 | 49.76171 | 24.03052 | 2230 ft | 130 kts | 316° |
| 2026-04-27 19:19 | 49.76817 | 24.02083 | 2052 ft | 129 kts | 316° |
| 2026-04-27 19:19 | 49.77466 | 24.01110 | 1857 ft | 130 kts | 316° |
| 2026-04-27 19:19 | 49.78115 | 24.00136 | 1657 ft | 130 kts | 315° |
| 2026-04-27 19:19 | 49.78757 | 23.99160 | 1511 ft | 130 kts | 315° |
| 2026-04-27 19:20 | 49.79406 | 23.98187 | 1321 ft | 130 kts | 315° |
| 2026-04-27 19:20 | 49.80064 | 23.97203 | 1097 ft | 132 kts | 315° |
| 2026-04-27 19:20 | 49.80653 | 23.96319 | 1067 ft | 96 kts | 315° |
| 2026-04-27 19:20 | 49.81007 | 23.95786 | 1063 ft | 48 kts | 316° |
| 2026-04-27 19:21 | 49.81155 | 23.95570 | 1065 ft | 19 kts | 316° |
| 2026-04-27 19:21 | 49.81242 | 23.95588 | 1066 ft | 10 kts | 46° |
| 2026-04-27 19:21 | 49.81274 | 23.95641 | 1066 ft | 6 kts | 49° |
| 2026-04-27 19:21 | 49.81285 | 23.95701 | 1066 ft | 6 kts | 93° |
| 2026-04-27 19:22 | 49.81269 | 23.95749 | 1066 ft | 6 kts | 115° |
| 2026-04-27 19:22 | 49.81278 | 23.95785 | 1066 ft | 3 kts | 25° |
| 2026-04-27 19:22 | 49.81305 | 23.95814 | 1067 ft | 7 kts | 43° |
| 2026-04-27 19:22 | 49.81319 | 23.95835 | 1066 ft | 0 kts | 46° |